Time;durP1;ratioP1;P1;durP2;ratioP2;P2;SDS_P1;SDS_P2;PMS_P1;PMS_P2;Temp;Humidity;BMP_temperature;BMP_pressure;BME280_temperature;BME280_humidity;BME280_pressure;Samples;Min_cycle;Max_cycle;Signal;HPM_P1;HPM_P2
2024/01/04 00:01:49;;;;;;;8.52;7.85;;;;;;;5.24;100.00;98645.47;12367536;23;20657;-72
2024/01/04 00:06:46;;;;;;;9.00;8.32;;;;;;;5.16;100.00;98632.81;12418223;23;20022;-72
2024/01/04 00:11:43;;;;;;;8.07;7.30;;;;;;;4.94;100.00;98642.06;12494931;23;20029;-71
2024/01/04 00:16:39;;;;;;;8.70;7.90;;;;;;;4.89;100.00;98631.44;12510404;23;20459;-72
2024/01/04 00:21:36;;;;;;;8.50;7.80;;;;;;;4.88;100.00;98632.56;12509593;23;20076;-70
2024/01/04 00:26:32;;;;;;;9.02;7.75;;;;;;;4.77;100.00;98630.22;12503145;23;20112;-71
2024/01/04 00:37:38;;;;;;;;;;;;;;;;;;;;;
2024/01/04 00:43:03;;;;;;;8.55;7.30;;;;;;;4.65;100.00;98654.53;12203492;23;20103;-71
2024/01/04 00:48:02;;;;;;;7.35;6.82;;;;;;;4.64;100.00;98690.81;12453449;23;20437;-71
2024/01/04 00:52:58;;;;;;;7.45;6.63;;;;;;;4.68;100.00;98699.88;12452849;23;20025;-70
2024/01/04 00:58:05;;;;;;;6.75;6.30;;;;;;;4.70;100.00;98691.44;12453156;23;20050;-71
2024/01/04 01:03:02;;;;;;;7.53;6.95;;;;;;;4.71;100.00;98718.19;12452343;23;20030;-69
2024/01/04 01:08:01;;;;;;;6.30;5.80;;;;;;;4.68;100.00;98737.78;12453453;23;20018;-69
2024/01/04 01:12:57;;;;;;;5.88;5.40;;;;;;;4.74;100.00;98747.31;12450561;23;20026;-72
2024/01/04 01:17:54;;;;;;;6.38;4.50;;;;;;;4.69;100.00;98763.75;12453087;23;20034;-73
2024/01/04 01:22:50;;;;;;;5.93;4.50;;;;;;;4.64;100.00;98780.16;12452902;23;20070;-71
2024/01/04 01:27:47;;;;;;;4.55;3.58;;;;;;;4.66;100.00;98794.16;12448174;23;20026;-72
2024/01/04 01:32:43;;;;;;;4.20;3.80;;;;;;;4.68;100.00;98816.28;12452407;23;20105;-72
2024/01/04 01:37:43;;;;;;;4.20;3.85;;;;;;;4.73;100.00;98829.63;12452275;23;20029;-71
2024/01/04 01:48:34;;;;;;;4.85;4.45;;;;;;;4.47;100.00;98859.50;12498597;23;20456;-68
2024/01/04 01:54:06;;;;;;;5.28;4.78;;;;;;;4.40;100.00;98860.00;12494042;23;20428;-71
2024/01/04 01:59:03;;;;;;;4.75;4.32;;;;;;;4.42;100.00;98870.50;12504500;23;20048;-71
2024/01/04 02:04:10;;;;;;;5.00;4.50;;;;;;;4.33;100.00;98878.63;12460322;23;20081;-69
2024/01/04 02:09:07;;;;;;;4.68;4.38;;;;;;;4.34;100.00;98869.41;12501144;23;20695;-69
2024/01/04 02:14:03;;;;;;;4.65;4.28;;;;;;;4.30;100.00;98884.69;12510474;23;20316;-70
2024/01/04 02:19:00;;;;;;;4.50;4.10;;;;;;;4.30;100.00;98911.75;12511200;23;20030;-70
2024/01/04 02:23:57;;;;;;;7.68;4.30;;;;;;;4.29;100.00;98906.66;12510440;23;20021;-70
2024/01/04 02:28:54;;;;;;;5.55;5.05;;;;;;;4.14;100.00;98935.00;12513384;23;20021;-71
2024/01/04 02:33:50;;;;;;;5.32;4.93;;;;;;;4.05;100.00;98915.28;12508756;23;20025;-69
2024/01/04 02:38:47;;;;;;;5.45;5.05;;;;;;;3.90;100.00;98920.03;12513210;23;20479;-70
2024/01/04 02:43:43;;;;;;;6.38;5.80;;;;;;;3.75;100.00;98923.19;12513417;23;20029;-70
2024/01/04 02:48:40;;;;;;;5.57;5.07;;;;;;;3.73;100.00;98930.81;12512621;23;20499;-70
2024/01/04 02:53:36;;;;;;;5.80;5.40;;;;;;;3.82;100.00;98926.22;12513695;23;20029;-70
2024/01/04 02:58:33;;;;;;;5.93;5.43;;;;;;;3.72;100.00;98921.13;12511319;23;20370;-71
2024/01/04 03:09:32;;;;;;;6.20;5.68;;;;;;;3.71;100.00;98925.75;12495702;23;20045;-70
2024/01/04 03:14:29;;;;;;;5.80;5.30;;;;;;;3.57;100.00;98950.22;12512313;23;20584;-73
2024/01/04 03:19:25;;;;;;;4.20;3.90;;;;;;;-146.18;100.00;67994.34;12529812;23;20479;-71
2024/01/04 03:24:59;;;;;;;4.45;4.10;;;;;;;-146.18;100.00;67994.34;12514424;23;20022;-71
2024/01/04 03:29:55;;;;;;;4.03;3.67;;;;;;;-146.18;100.00;67994.34;12513177;23;20108;-72
2024/01/04 03:34:52;;;;;;;4.45;4.05;;;;;;;-146.18;100.00;67994.34;12513120;23;20029;-72
2024/01/04 03:39:49;;;;;;;4.45;4.05;;;;;;;3.40;100.00;98987.97;12507547;23;20022;-72
2024/01/04 03:44:46;;;;;;;5.32;4.35;;;;;;;3.24;100.00;99016.50;12513979;23;20033;-70
2024/01/04 03:49:42;;;;;;;5.50;4.97;;;;;;;2.98;100.00;99019.84;12512520;23;20027;-72
2024/01/04 03:54:39;;;;;;;5.75;5.25;;;;;;;3.03;100.00;99022.44;12513549;23;20029;-72
2024/01/04 03:59:37;;;;;;;6.05;5.60;;;;;;;2.85;100.00;99047.72;12513080;23;20432;-71
2024/01/04 04:04:33;;;;;;;6.90;6.10;;;;;;;2.69;100.00;99040.00;12512333;23;20026;-72
2024/01/04 04:09:30;;;;;;;6.88;6.38;;;;;;;2.64;100.00;99047.41;12512680;23;20451;-71
2024/01/04 04:14:26;;;;;;;6.78;6.28;;;;;;;2.50;100.00;99052.84;12511581;23;20073;-72
2024/01/04 04:19:23;;;;;;;7.03;6.53;;;;;;;2.38;100.00;99055.28;12513047;23;20363;-72
2024/01/04 04:24:19;;;;;;;6.75;6.35;;;;;;;-146.18;100.00;67994.34;12531271;23;20041;-71
2024/01/04 04:29:16;;;;;;;6.93;6.50;;;;;;;2.38;100.00;99055.28;12566736;23;20029;-70
2024/01/04 04:34:13;;;;;;;8.63;7.93;;;;;;;2.03;100.00;99060.34;12527885;23;20026;-73
2024/01/04 04:39:09;;;;;;;8.70;7.80;;;;;;;2.04;100.00;99051.16;12511873;23;20025;-71
2024/01/04 04:50:20;;;;;;;7.55;7.05;;;;;;;1.74;100.00;99085.72;12572075;23;20021;-70
2024/01/04 04:55:16;;;;;;;8.15;7.65;;;;;;;1.76;100.00;99088.09;12569628;23;20389;-72
2024/01/04 05:00:13;;;;;;;7.97;7.40;;;;;;;1.63;100.00;99085.09;12511643;23;20068;-71
2024/01/04 05:05:32;;;;;;;7.90;7.40;;;;;;;1.46;100.00;99112.63;12507548;23;20168;-70
2024/01/04 05:10:29;;;;;;;9.07;8.48;;;;;;;1.37;100.00;99119.78;12572135;23;20116;-71
2024/01/04 05:16:16;;;;;;;9.38;8.68;;;;;;;1.32;100.00;99117.16;12510460;23;20022;-72
2024/01/04 05:21:13;;;;;;;10.32;9.52;;;;;;;1.21;100.00;99143.47;12508207;23;20026;-71
2024/01/04 05:26:19;;;;;;;10.07;9.38;;;;;;;1.21;100.00;99143.47;12510678;23;20021;-72
2024/01/04 05:31:19;;;;;;;11.48;10.57;;;;;;;1.04;100.00;99162.88;12510534;23;20021;-71
2024/01/04 05:36:15;;;;;;;11.68;10.70;;;;;;;1.05;100.00;99177.13;12513618;23;20021;-76
2024/01/04 05:41:12;;;;;;;11.30;10.43;;;;;;;1.03;100.00;99180.09;12508908;23;20022;-76
2024/01/04 05:46:08;;;;;;;10.85;10.05;;;;;;;0.96;100.00;99195.81;12516751;23;20028;-75
2024/01/04 05:51:06;;;;;;;10.73;9.88;;;;;;;0.83;100.00;99212.66;12505201;23;20017;-74
2024/01/04 05:56:03;;;;;;;10.52;9.82;;;;;;;0.81;100.00;99226.44;12513081;23;20032;-72
2024/01/04 06:01:00;;;;;;;12.38;11.23;;;;;;;0.88;100.00;99231.44;12512674;23;20072;-73
2024/01/04 06:05:56;;;;;;;12.05;11.20;;;;;;;0.81;100.00;99250.66;12508072;23;20640;-72
2024/01/04 06:10:53;;;;;;;11.13;10.23;;;;;;;0.72;100.00;99270.38;12508301;23;20589;-72
2024/01/04 06:15:49;;;;;;;11.00;10.27;;;;;;;0.68;100.00;99285.53;12509578;23;20017;-71
2024/01/04 06:20:47;;;;;;;10.60;9.90;;;;;;;0.54;100.00;99299.66;12512745;23;20025;-72
2024/01/04 06:25:43;;;;;;;11.05;10.25;;;;;;;0.59;100.00;99315.72;12510840;23;20059;-75
2024/01/04 06:30:40;;;;;;;10.77;10.10;;;;;;;0.58;100.00;99330.28;12512758;23;20026;-75
2024/01/04 06:35:37;;;;;;;10.57;9.90;;;;;;;0.51;100.00;99345.94;12504918;23;20494;-75
2024/01/04 06:40:34;;;;;;;10.32;9.63;;;;;;;0.58;100.00;99357.16;12509168;23;20022;-76
2024/01/04 06:45:31;;;;;;;11.93;9.32;;;;;;;0.58;100.00;99367.94;12506013;23;20396;-76
2024/01/04 06:50:28;;;;;;;9.75;9.10;;;;;;;0.44;100.00;99375.03;12489392;23;20029;-76
2024/01/04 06:55:25;;;;;;;11.68;10.57;;;;;;;0.43;100.00;99389.59;12514505;23;20524;-75
2024/01/04 07:00:23;;;;;;;11.10;10.10;;;;;;;0.38;100.00;99403.06;12512024;23;20103;-75
2024/01/04 07:05:19;;;;;;;10.70;10.00;;;;;;;0.45;100.00;99406.25;12512967;23;20022;-76
2024/01/04 07:10:16;;;;;;;11.05;10.20;;;;;;;0.51;100.00;99421.25;12509923;23;20024;-75
2024/01/04 07:15:13;;;;;;;10.73;9.90;;;;;;;0.42;100.00;99441.78;12509174;23;20029;-76
2024/01/04 07:20:10;;;;;;;9.88;9.27;;;;;;;0.27;100.00;99450.75;12511468;23;20100;-75
2024/01/04 07:25:06;;;;;;;9.98;9.30;;;;;;;0.27;100.00;99461.50;12511834;23;20025;-76
2024/01/04 07:30:04;;;;;;;10.07;9.48;;;;;;;0.29;100.00;99488.13;12510833;23;20630;-73
2024/01/04 07:35:01;;;;;;;10.35;9.70;;;;;;;0.35;100.00;99484.31;12511161;23;20036;-75
2024/01/04 07:40:12;;;;;;;10.63;9.93;;;;;;;0.29;100.00;99510.41;12512123;23;20018;-75
2024/01/04 07:45:09;;;;;;;10.23;9.50;;;;;;;0.32;100.00;99517.91;12510533;23;20028;-75
2024/01/04 07:50:06;;;;;;;10.07;9.38;;;;;;;0.28;100.00;99534.88;12483079;23;20041;-72
2024/01/04 07:55:03;;;;;;;9.77;9.18;;;;;;;0.31;100.00;99564.72;12483895;23;20025;-74
2024/01/04 08:00:04;;;;;;;9.75;9.10;;;;;;;0.39;100.00;99574.88;12504746;23;20022;-73
2024/01/04 08:05:01;;;;;;;10.90;10.10;;;;;;;0.43;100.00;99595.84;12514071;23;20026;-75
2024/01/04 08:09:58;;;;;;;9.35;8.75;;;;;;;0.40;100.00;99624.09;12534871;23;20080;-75
2024/01/04 08:14:54;;;;;;;9.70;9.00;;;;;;;0.41;100.00;99625.69;12511830;23;20104;-74
2024/01/04 08:19:51;;;;;;;9.90;9.30;;;;;;;0.42;100.00;99654.22;12510951;23;20105;-75
2024/01/04 08:24:49;;;;;;;10.23;9.55;;;;;;;0.49;100.00;99664.66;12510881;23;20056;-75
2024/01/04 08:29:49;;;;;;;9.85;9.25;;;;;;;0.40;100.00;99677.88;12512509;23;20056;-75
2024/01/04 08:34:46;;;;;;;10.02;9.13;;;;;;;0.45;100.00;99696.69;12511053;23;20034;-72
2024/01/04 08:39:43;;;;;;;10.02;9.27;;;;;;;0.44;100.00;99711.19;12512833;23;20057;-74
2024/01/04 08:44:41;;;;;;;9.60;9.00;;;;;;;0.30;100.00;99731.69;12512323;23;20028;-74
2024/01/04 08:49:37;;;;;;;10.32;9.50;;;;;;;0.43;100.00;99752.63;12511705;23;20098;-75
2024/01/04 08:54:34;;;;;;;10.30;9.70;;;;;;;0.42;100.00;99756.41;12534382;23;20080;-75
2024/01/04 08:59:31;;;;;;;10.18;9.45;;;;;;;0.52;100.00;99767.13;12509688;23;20059;-75
2024/01/04 09:04:27;;;;;;;9.73;9.13;;;;;;;0.63;100.00;99771.41;12509498;23;20684;-76
2024/01/04 09:09:24;;;;;;;9.80;9.07;;;;;;;0.47;100.00;99794.03;12513851;23;20018;-73
2024/01/04 09:14:20;;;;;;;9.55;8.90;;;;;;;0.60;100.00;99806.94;12516469;23;20036;-74
2024/01/04 09:19:19;;;;;;;9.90;9.20;;;;;;;0.60;100.00;99820.38;12514853;23;20021;-76
2024/01/04 09:24:17;;;;;;;9.93;9.20;;;;;;;0.69;100.00;99838.63;12538686;23;20048;-76
2024/01/04 09:29:18;;;;;;;9.30;8.70;;;;;;;0.63;100.00;99860.19;12512692;23;20025;-75
2024/01/04 09:34:15;;;;;;;9.45;8.75;;;;;;;0.78;100.00;99874.66;12514917;23;20025;-75
2024/01/04 09:39:17;;;;;;;9.93;8.60;;;;;;;0.54;100.00;99888.72;12537114;23;20029;-72
2024/01/04 09:44:14;;;;;;;9.07;8.48;;;;;;;0.53;100.00;99897.84;12517086;23;20399;-74
2024/01/04 09:49:13;;;;;;;8.73;8.13;;;;;;;0.56;100.00;99913.47;12516612;23;20028;-74
2024/01/04 09:54:11;;;;;;;9.40;8.80;;;;;;;0.56;100.00;99934.97;12517560;23;20033;-73
2024/01/04 09:59:08;;;;;;;8.98;8.38;;;;;;;0.53;100.00;99945.47;12518292;23;20045;-75
2024/01/04 10:04:06;;;;;;;9.43;8.65;;;;;;;0.62;100.00;99955.41;12516230;23;20059;-74
2024/01/04 10:09:18;;;;;;;9.45;8.57;;;;;;;0.62;100.00;99963.47;12517626;23;20029;-74
2024/01/04 10:14:15;;;;;;;9.15;8.55;;;;;;;0.57;100.00;99985.00;12509040;23;20025;-73
2024/01/04 10:19:12;;;;;;;9.38;8.68;;;;;;;0.47;100.00;99995.78;12514746;23;20430;-74
2024/01/04 10:24:13;;;;;;;9.55;8.95;;;;;;;0.55;100.00;100003.28;12537749;23;20029;-73
2024/01/04 10:29:10;;;;;;;9.45;8.57;;;;;;;0.55;100.00;100013.25;12512960;23;20464;-73
2024/01/04 10:34:09;;;;;;;10.00;9.30;;;;;;;0.45;100.00;100032.88;12514273;23;20092;-73
2024/01/04 10:39:08;;;;;;;9.45;8.65;;;;;;;0.42;100.00;100041.50;12512687;23;20032;-73
2024/01/04 10:49:17;;;;;;;8.93;8.07;;;;;;;0.54;100.00;100060.06;12571929;23;20021;-74
2024/01/04 10:54:14;;;;;;;8.77;8.10;;;;;;;0.66;100.00;100067.88;12574503;23;20515;-73
2024/01/04 10:59:12;;;;;;;8.45;7.80;;;;;;;0.65;100.00;100077.00;12547958;23;20029;-72
2024/01/04 11:04:10;;;;;;;9.70;8.98;;;;;;;0.51;100.00;100087.47;12573970;23;20029;-73
2024/01/04 11:09:07;;;;;;;8.68;8.13;;;;;;;0.61;100.00;100099.06;12575166;23;20031;-72
2024/01/04 11:14:04;;;;;;;7.93;7.43;;;;;;;0.54;100.00;100109.28;12574784;23;20104;-74
2024/01/04 11:19:23;;;;;;;7.80;7.30;;;;;;;0.62;100.00;100118.72;12572555;23;20021;-74
2024/01/04 11:24:45;;;;;;;10.73;7.78;;;;;;;0.69;100.00;100121.16;12574578;23;20084;-73
2024/01/04 11:29:42;;;;;;;8.38;7.78;;;;;;;0.84;100.00;100129.25;12566943;23;20529;-73
2024/01/04 11:34:39;;;;;;;8.07;7.47;;;;;;;0.84;100.00;100129.25;12573975;23;20020;-73
2024/01/04 11:39:58;;;;;;;8.05;7.50;;;;;;;0.95;100.00;100155.13;12574075;23;20028;-73
2024/01/04 11:44:58;;;;;;;7.70;7.18;;;;;;;0.80;100.00;100184.69;12570816;23;20060;-73
2024/01/04 11:49:58;;;;;;;7.78;7.07;;;;;;;0.98;100.00;100194.94;12568568;23;20060;-74
2024/01/04 11:55:09;;;;;;;7.60;7.00;;;;;;;0.79;100.00;100199.19;12551069;23;20103;-73
2024/01/04 12:00:13;;;;;;;7.35;6.85;;;;;;;0.81;100.00;100205.13;12547366;23;20027;-72
2024/01/04 12:05:10;;;;;;;8.60;7.90;;;;;;;0.90;100.00;100208.91;12570049;23;20021;-72
2024/01/04 12:10:09;;;;;;;7.30;6.70;;;;;;;0.55;100.00;100207.75;12572414;23;20027;-74
2024/01/04 12:15:08;;;;;;;8.00;7.00;;;;;;;0.88;100.00;100216.44;12574708;23;20025;-72
2024/01/04 12:20:09;;;;;;;7.45;6.43;;;;;;;1.01;100.00;100226.72;12547161;23;20359;-72
2024/01/04 12:25:07;;;;;;;7.07;6.47;;;;;;;0.89;100.00;100228.84;12548358;23;20068;-73
2024/01/04 12:30:06;;;;;;;6.93;6.43;;;;;;;0.85;100.00;100233.13;12573709;23;20497;-71
2024/01/04 12:35:03;;;;;;;6.97;6.47;;;;;;;0.81;100.00;100240.13;12571613;23;20032;-72
2024/01/04 12:40:11;;;;;;;6.90;6.40;;;;;;;0.83;100.00;100251.44;12566817;23;20053;-69
2024/01/04 12:45:09;;;;;;;6.90;6.40;;;;;;;1.16;100.00;100250.19;12544149;23;20478;-74
2024/01/04 12:50:09;;;;;;;7.28;6.65;;;;;;;1.09;100.00;100255.03;12572610;23;20017;-73
2024/01/04 12:55:05;;;;;;;7.03;6.43;;;;;;;1.13;100.00;100268.75;12572471;23;20021;-74
2024/01/04 13:00:03;;;;;;;6.90;6.40;;;;;;;0.98;100.00;100272.22;12573273;23;20028;-74
2024/01/04 13:05:00;;;;;;;6.68;6.18;;;;;;;1.04;100.00;100284.59;12572046;23;20033;-73
2024/01/04 13:09:57;;;;;;;7.03;6.47;;;;;;;1.00;100.00;100284.34;12571952;23;20017;-74
2024/01/04 13:14:54;;;;;;;6.85;6.35;;;;;;;0.95;100.00;100295.09;12572643;23;20029;-72
2024/01/04 13:19:51;;;;;;;7.32;6.72;;;;;;;1.02;100.00;100308.28;12572555;23;20351;-73
2024/01/04 13:24:48;;;;;;;8.10;7.03;;;;;;;1.02;100.00;100314.50;12573691;23;20033;-73
2024/01/04 13:29:44;;;;;;;7.53;6.75;;;;;;;0.96;100.00;100315.53;12571654;23;20101;-75
2024/01/04 13:34:41;;;;;;;8.27;7.57;;;;;;;0.90;100.00;100327.34;12546338;23;20021;-74
2024/01/04 13:39:40;;;;;;;8.48;7.68;;;;;;;0.81;100.00;100328.94;12546180;23;20025;-74
2024/01/04 13:44:37;;;;;;;8.20;7.45;;;;;;;1.01;100.00;100337.09;12571394;23;20032;-74
2024/01/04 13:49:33;;;;;;;12.32;7.60;;;;;;;0.97;100.00;100349.47;12565796;23;20028;-74
2024/01/04 13:54:30;;;;;;;7.53;6.93;;;;;;;0.86;100.00;100363.13;12557956;23;20032;-74
2024/01/04 13:59:30;;;;;;;7.68;7.15;;;;;;;0.83;100.00;100369.84;12571536;23;20652;-74
2024/01/04 14:04:26;;;;;;;8.57;7.82;;;;;;;0.93;100.00;100374.47;12547438;23;20029;-75
2024/01/04 14:09:25;;;;;;;8.13;7.40;;;;;;;1.16;100.00;100375.91;12544279;23;20021;-75
2024/01/04 14:14:23;;;;;;;8.32;7.70;;;;;;;1.03;100.00;100399.56;12573881;23;20036;-75
2024/01/04 14:19:19;;;;;;;8.57;7.85;;;;;;;0.97;100.00;100408.69;12571478;23;20025;-75
2024/01/04 14:24:16;;;;;;;8.07;7.47;;;;;;;0.78;100.00;100418.28;12574225;23;20096;-75
2024/01/04 14:29:13;;;;;;;7.90;7.22;;;;;;;0.88;100.00;100426.41;12547941;23;20525;-74
2024/01/04 14:34:09;;;;;;;8.32;7.68;;;;;;;0.93;100.00;100425.63;12574401;23;20087;-74
2024/01/04 14:39:06;;;;;;;8.23;7.45;;;;;;;0.89;100.00;100429.94;12573540;23;20558;-75
2024/01/04 14:44:03;;;;;;;9.18;8.43;;;;;;;0.98;100.00;100437.25;12574714;23;20124;-75
2024/01/04 14:49:01;;;;;;;9.05;8.18;;;;;;;0.80;100.00;100440.38;12544851;23;20096;-75
2024/01/04 14:53:58;;;;;;;8.57;7.97;;;;;;;0.98;100.00;100439.94;12568202;23;20104;-75
2024/01/04 14:58:55;;;;;;;8.40;7.80;;;;;;;1.03;100.00;100448.03;12545970;23;20021;-75
2024/01/04 15:09:18;;;;;;;8.20;7.60;;;;;;;0.92;100.00;100456.31;12562270;23;20053;-76
2024/01/04 15:15:15;;;;;;;;;;;;;;;;;;;;;
2024/01/04 15:26:08;;;;;;;8.77;7.97;;;;;;;0.76;100.00;100472.34;12516841;23;20057;-77
2024/01/04 15:31:05;;;;;;;8.30;7.60;;;;;;;0.86;100.00;100481.56;12535857;23;20022;-79
2024/01/04 15:36:02;;;;;;;8.95;8.25;;;;;;;0.60;100.00;100479.53;12514236;23;20034;-76
2024/01/04 15:40:59;;;;;;;9.30;8.40;;;;;;;0.71;100.00;100479.59;12513253;23;20392;-77
2024/01/04 15:45:55;;;;;;;9.02;8.10;;;;;;;0.87;100.00;100494.78;12514488;23;20049;-77
2024/01/04 15:50:55;;;;;;;8.48;7.75;;;;;;;0.97;100.00;100483.25;12509926;23;20491;-77
2024/01/04 15:55:52;;;;;;;8.68;7.97;;;;;;;1.10;100.00;100504.34;12514741;23;20041;-77
2024/01/04 16:00:51;;;;;;;9.32;7.90;;;;;;;1.23;100.00;100498.53;12539705;23;20021;-77
2024/01/04 16:05:49;;;;;;;8.90;7.85;;;;;;;1.09;100.00;100501.91;12538955;23;20100;-77
2024/01/04 16:10:49;;;;;;;9.48;8.77;;;;;;;1.18;100.00;100521.91;12494505;23;20097;-79
2024/01/04 16:33:23;;;;;;;8.73;7.97;;;;;;;1.09;100.00;100531.53;12510395;23;20116;-73
2024/01/04 16:38:21;;;;;;;9.15;8.20;;;;;;;1.01;100.00;100533.63;12510418;23;20080;-74
2024/01/04 17:03:21;;;;;;;8.30;7.70;;;;;;;1.13;100.00;100564.97;12510271;23;20021;-75
2024/01/04 17:14:38;;;;;;;8.80;8.10;;;;;;;1.10;100.00;100557.41;12479791;23;20359;-77
2024/01/04 17:19:35;;;;;;;9.05;8.27;;;;;;;1.05;100.00;100572.44;12533417;23;20053;-76
2024/01/04 17:24:32;;;;;;;9.45;8.65;;;;;;;1.16;100.00;100578.72;12513698;23;20106;-76
2024/01/04 17:29:43;;;;;;;9.05;8.32;;;;;;;1.17;100.00;100587.63;12522348;23;20021;-75
2024/01/04 17:34:43;;;;;;;9.63;8.82;;;;;;;1.19;100.00;100593.56;12492974;23;20029;-75
2024/01/04 17:39:54;;;;;;;9.88;8.88;;;;;;;1.17;100.00;100601.09;12553323;23;20301;-75
2024/01/04 17:44:51;;;;;;;9.18;8.27;;;;;;;1.01;100.00;100598.25;12525853;23;20025;-76
2024/01/04 17:49:47;;;;;;;10.05;9.05;;;;;;;1.15;100.00;100609.41;12547789;23;20025;-74
2024/01/04 17:54:46;;;;;;;8.80;7.97;;;;;;;1.13;100.00;100599.97;12516638;23;20676;-76
2024/01/04 17:59:43;;;;;;;11.70;8.75;;;;;;;0.94;100.00;100600.34;12539278;23;20036;-76
2024/01/04 18:04:40;;;;;;;9.70;8.82;;;;;;;0.95;100.00;100615.47;12516806;23;20022;-76
2024/01/04 18:09:37;;;;;;;14.73;8.88;;;;;;;1.10;100.00;100617.44;12538009;23;20643;-76
2024/01/04 18:14:35;;;;;;;10.25;9.35;;;;;;;1.00;100.00;100620.88;12503205;23;20104;-75
2024/01/04 18:19:31;;;;;;;10.38;9.23;;;;;;;1.05;100.00;100625.50;12513073;23;20025;-76
2024/01/04 18:24:28;;;;;;;10.07;9.02;;;;;;;1.08;100.00;100634.94;12515765;23;20036;-75
2024/01/04 18:29:28;;;;;;;10.55;9.45;;;;;;;1.07;100.00;100636.81;12516373;23;20029;-76
2024/01/04 18:34:29;;;;;;;10.23;9.40;;;;;;;0.99;100.00;100654.25;12509079;23;20037;-75
2024/01/04 18:39:26;;;;;;;11.03;10.03;;;;;;;1.08;100.00;100637.63;12508127;23;20112;-75
2024/01/04 18:44:22;;;;;;;10.82;9.82;;;;;;;0.98;100.00;100636.47;12481489;23;20057;-75
2024/01/04 18:49:19;;;;;;;13.65;10.55;;;;;;;0.96;100.00;100633.22;12473731;23;20018;-75
2024/01/04 18:54:16;;;;;;;11.73;10.63;;;;;;;1.04;100.00;100640.84;12447412;23;20022;-75
2024/01/04 18:59:17;;;;;;;13.05;11.38;;;;;;;1.11;100.00;100634.41;12446033;23;20033;-75
2024/01/04 19:04:14;;;;;;;10.77;9.88;;;;;;;1.08;100.00;100637.63;12448563;23;20037;-75
2024/01/04 19:09:12;;;;;;;11.63;10.55;;;;;;;0.87;100.00;100634.75;12446219;23;20045;-75
2024/01/04 19:14:09;;;;;;;12.50;11.30;;;;;;;0.91;100.00;100618.91;12448388;23;20026;-75
2024/01/04 19:19:06;;;;;;;13.07;11.77;;;;;;;0.96;100.00;100610.88;12465523;23;20033;-76
2024/01/04 19:24:03;;;;;;;15.15;11.57;;;;;;;0.86;100.00;100622.38;12451262;23;20472;-75
2024/01/04 19:28:59;;;;;;;13.02;11.68;;;;;;;0.88;100.00;100630.97;12451413;23;20640;-75
2024/01/04 19:33:56;;;;;;;22.52;11.35;;;;;;;0.71;100.00;100624.91;12471500;23;20499;-75
2024/01/04 19:38:53;;;;;;;15.82;11.35;;;;;;;0.71;100.00;100624.91;12445004;23;20028;-73
2024/01/04 19:43:50;;;;;;;11.38;10.27;;;;;;;0.73;100.00;100633.53;12443698;23;20108;-75
2024/01/04 19:48:46;;;;;;;13.70;11.98;;;;;;;0.71;100.00;100630.28;12441250;23;20026;-75
2024/01/04 19:53:43;;;;;;;11.80;10.60;;;;;;;0.67;100.00;100629.16;12443168;23;20028;-75
2024/01/04 19:58:41;;;;;;;13.77;11.07;;;;;;;0.76;100.00;100641.09;12442493;23;20037;-75
2024/01/04 20:03:38;;;;;;;13.73;11.63;;;;;;;0.71;100.00;100641.06;12450479;23;20030;-75
2024/01/04 20:08:35;;;;;;;12.00;10.82;;;;;;;0.81;100.00;100650.06;12450926;23;20038;-75
2024/01/04 20:13:32;;;;;;;12.73;11.25;;;;;;;0.84;100.00;100656.81;12423973;23;20026;-75
2024/01/04 20:18:28;;;;;;;12.68;11.38;;;;;;;0.82;100.00;100658.94;12446040;23;20029;-75
2024/01/04 20:23:25;;;;;;;13.48;10.90;;;;;;;0.79;100.00;100659.44;12436389;23;20029;-74
2024/01/04 20:28:22;;;;;;;13.18;11.88;;;;;;;0.91;100.00;100662.78;12449585;23;20085;-75
2024/01/04 20:33:19;;;;;;;11.13;10.10;;;;;;;0.83;100.00;100671.31;12487506;23;20641;-75
2024/01/04 20:38:16;;;;;;;13.63;11.15;;;;;;;0.62;100.00;100673.78;12463417;23;20030;-76
2024/01/04 20:49:44;;;;;;;11.30;10.30;;;;;;;0.64;100.00;100673.53;12507475;23;20026;-72
2024/01/04 20:55:23;;;;;;;14.45;11.32;;;;;;;0.82;100.00;100667.00;12556660;23;20025;-72
2024/01/04 21:01:25;;;;;;;;;;;;;;;;;;;;;
2024/01/04 21:06:41;;;;;;;13.05;11.50;;;;;;;0.73;100.00;100677.41;12324130;23;20030;-72
2024/01/04 21:11:48;;;;;;;15.15;12.32;;;;;;;0.52;100.00;100676.38;12324500;23;20541;-70
2024/01/04 21:16:44;;;;;;;17.02;12.13;;;;;;;0.66;100.00;100676.00;12328398;23;20154;-71
2024/01/04 21:21:43;;;;;;;15.00;12.30;;;;;;;0.54;100.00;100668.88;12328166;23;20038;-70
2024/01/04 21:26:39;;;;;;;14.48;12.50;;;;;;;0.57;100.00;100652.22;12326210;23;20029;-70
2024/01/04 21:31:36;;;;;;;13.57;12.00;;;;;;;0.77;100.00;100662.38;12328179;23;20166;-70
2024/01/04 21:36:33;;;;;;;15.35;12.60;;;;;;;0.65;100.00;100674.34;12328761;23;20027;-70
2024/01/04 21:41:29;;;;;;;13.95;11.73;;;;;;;0.60;100.00;100673.25;12396558;23;20083;-70
2024/01/04 21:46:26;;;;;;;16.75;11.90;;;;;;;0.68;100.00;100679.25;12555057;23;20472;-71
2024/01/04 21:51:23;;;;;;;14.45;11.80;;;;;;;0.70;100.00;100682.50;12506530;23;20625;-70
2024/01/04 21:56:27;;;;;;;17.00;11.50;;;;;;;0.69;100.00;100686.25;12528718;23;20025;-70
2024/01/04 22:01:28;;;;;;;13.80;12.20;;;;;;;0.74;100.00;100680.91;12556456;23;20420;-70
2024/01/04 22:06:25;;;;;;;15.70;11.97;;;;;;;0.70;100.00;100691.38;12528601;23;20120;-70
2024/01/04 22:11:22;;;;;;;17.55;11.48;;;;;;;0.65;100.00;100701.25;12555765;23;20450;-69
2024/01/04 22:16:19;;;;;;;14.25;10.32;;;;;;;0.56;100.00;100703.59;12522529;23;20021;-70
2024/01/04 22:21:21;;;;;;;11.02;9.95;;;;;;;0.38;100.00;100707.41;12557360;23;20025;-71
2024/01/04 22:26:18;;;;;;;12.73;9.50;;;;;;;0.40;100.00;100705.28;12527245;23;20029;-71
2024/01/04 22:31:15;;;;;;;14.20;9.55;;;;;;;0.51;100.00;100701.66;12558245;23;20035;-71
2024/01/04 22:36:12;;;;;;;12.35;9.88;;;;;;;0.53;100.00;100683.38;12527001;23;20025;-70
2024/01/04 22:41:09;;;;;;;13.95;9.90;;;;;;;0.60;100.00;100673.25;12558930;23;20033;-70
2024/01/04 22:46:06;;;;;;;11.70;9.85;;;;;;;0.52;100.00;100665.63;12525371;23;20594;-70
2024/01/04 22:51:03;;;;;;;12.07;10.38;;;;;;;0.48;100.00;100656.41;12553758;23;20036;-71
2024/01/04 22:55:59;;;;;;;16.27;10.23;;;;;;;0.36;100.00;100655.75;12498906;23;20100;-70
2024/01/04 23:00:56;;;;;;;11.50;10.30;;;;;;;0.35;100.00;100670.28;12560746;23;20494;-71
2024/01/04 23:05:52;;;;;;;13.05;10.55;;;;;;;0.43;100.00;100661.75;12521305;23;20107;-71
2024/01/04 23:10:49;;;;;;;12.60;10.50;;;;;;;0.48;100.00;100653.72;12561667;23;20021;-71
2024/01/04 23:15:46;;;;;;;10.85;9.63;;;;;;;0.40;100.00;100640.75;12520450;23;20396;-71
2024/01/04 23:20:42;;;;;;;13.35;11.05;;;;;;;0.48;100.00;100637.59;12557627;23;20025;-70
2024/01/04 23:25:39;;;;;;;10.45;9.35;;;;;;;0.44;100.00;100643.72;12519437;23;20359;-70
2024/01/04 23:30:35;;;;;;;10.10;8.85;;;;;;;0.36;100.00;100653.88;12564063;23;20486;-71
2024/01/04 23:35:32;;;;;;;13.43;9.27;;;;;;;0.38;100.00;100654.44;12516586;23;20072;-70
2024/01/04 23:40:28;;;;;;;12.65;9.55;;;;;;;0.40;100.00;100657.69;12565438;23;20355;-70
2024/01/04 23:45:25;;;;;;;13.00;9.45;;;;;;;0.39;100.00;100660.63;12515728;23;20037;-70
2024/01/04 23:50:21;;;;;;;11.65;9.73;;;;;;;0.38;100.00;100656.31;12566396;23;20029;-71
2024/01/04 23:55:18;;;;;;;11.38;10.13;;;;;;;0.39;100.00;100669.50;12502496;23;20092;-71
